Flight Track Log - Related Links

Times and Time Zones

All times are in EDT time to prevent confusion due to time zone crossing. See the N75ZM flight status page for this flight to view local times or setup timezone preferences in your user account.

Time Position Orientation Groundspeed Altitude Reporting Facility
EDT Latitude Longitude Course Direction KTS MPH feet Rate Location/Type
Fri 06:55:02 AM 42.2406 -83.5450 206° Southwest 118 136 1,300  Level Cleveland Center
Fri 06:56:27 AM 42.1961 -83.5739 206° Southwest 139 160 3,100 1,184 Climbing Cleveland Center
Fri 06:57:34 AM 42.1561 -83.5914 198° South 136 157 4,300 891 Climbing Cleveland Center
Fri 06:58:35 AM 42.1364 -83.5458 120° Southeast 147 169 5,000 408 Climbing Cleveland Center
Fri 06:59:17 AM 42.1250 -83.5033 110° East 177 204 5,000  Level Cleveland Center
Fri 07:00:30 AM 42.0997 -83.4292 115° Southeast 185 213 5,000  Level Cleveland Center
Fri 07:01:31 AM 42.0783 -83.3667 115° Southeast 185 213 5,000  Level Cleveland Center
Fri 07:02:37 AM 42.0592 -83.2961 110° East 185 213 5,000  Level Cleveland Center
Fri 07:03:32 AM 42.0378 -83.2364 116° Southeast 185 213 5,000  Level Cleveland Center
Fri 07:04:39 AM 42.0164 -83.1683 113° Southeast 185 213 5,000  Level Cleveland Center
Fri 07:05:40 AM 41.9928 -83.1031 116° Southeast 184 212 5,000  Level Cleveland Center
Fri 07:06:47 AM 41.9714 -83.0325 112° Southeast 186 214 5,000  Level Cleveland Center
Fri 07:07:42 AM 41.9536 -82.9789 114° Southeast 184 212 5,000  Level Cleveland Center
Fri 07:08:49 AM 41.9322 -82.9056 111° Southeast 182 209 5,000 56 Level Cleveland Center
Fri 07:09:29 AM 41.9142 -82.8658 121° Southeast 181 208 5,100  Climbing Cleveland Center
Fri 07:10:12 AM 41.9025 -82.8233 110° East 183 211 5,000 -58 Descending Cleveland Center
Fri 07:11:13 AM 41.8789 -82.7556 115° Southeast 183 211 5,000  Level Cleveland Center
Fri 07:12:13 AM 41.8572 -82.6936 115° Southeast 187 215 5,000  Level Cleveland Center
Fri 07:13:20 AM 41.8356 -82.6206 112° Southeast 186 214 5,000  Level Cleveland Center
Fri 07:14:15 AM 41.8219 -82.5642 108° East 188 216 5,000  Level Cleveland Center
Fri 07:15:15 AM 41.8086 -82.4969 105° East 186 214 5,000  Level Cleveland Center
Fri 07:16:16 AM 41.7972 -82.4269 102° East 186 214 5,000  Level Cleveland Center
Fri 07:17:17 AM 41.7836 -82.3625 106° East 183 211 5,000  Level Cleveland Center
Fri 07:18:17 AM 41.7700 -82.2897 104° East 185 213 5,000  Level Cleveland Center
Fri 07:19:18 AM 41.7544 -82.2225 107° East 186 214 5,000  Level Cleveland Center
Fri 07:20:19 AM 41.7408 -82.1556 105° East 184 212 5,000  Level Cleveland Center
Fri 07:21:19 AM 41.7292 -82.0911 104° East 182 209 5,000 50 Level Cleveland Center
Fri 07:22:20 AM 41.7153 -82.0242 106° East 181 208 5,100 -98 Climbing Cleveland Center
Fri 07:23:21 AM 41.7036 -81.9569 103° East 184 212 4,800 -446 Descending Cleveland Center
Fri 07:24:21 AM 41.6939 -81.8956 102° East 175 201 4,200 -347 Descending Cleveland Center
Fri 07:25:22 AM 41.6800 -81.8369 108° East 165 190 4,100 -94 Descending Cleveland Center
Fri 07:26:29 AM 41.6661 -81.7644 104° East 178 205 4,000 -99 Descending Cleveland Center
Fri 07:27:23 AM 41.6564 -81.7058 102° East 176 203 3,900 -313 Descending Cleveland Center
Fri 07:28:24 AM 41.6444 -81.6417 104° East 173 199 3,400 -446 Descending Cleveland Center
Fri 07:29:24 AM 41.6428 -81.5833 92° East 161 185 3,000 -149 Descending Cleveland Center
Fri 07:30:25 AM 41.6414 -81.5306 92° East 139 160 3,100  Climbing Cleveland Center
Fri 07:31:26 AM 41.6228 -81.4997 129° Southeast 129 148 3,000 -50 Descending Cleveland Center
Fri 07:32:26 AM 41.5933 -81.5272 215° Southwest 124 143 3,000 -248 Level Cleveland Center
Fri 07:33:27 AM 41.5742 -81.5628 234° Southwest 124 143 2,500 -492 Descending Cleveland Center
Fri 07:34:28 AM 41.5572 -81.5958 236° Southwest 101 116 2,000 -520 Descending Cleveland Center
Fri 07:35:34 AM 41.5403 -81.6372 241° Southwest 104 120 1,400 -496 Descending Cleveland Center
Fri 07:36:29 AM 41.5256 -81.6619 232° Southwest 92 106 1,000 -436 Descending Cleveland Center

Login

Don't have an account? Register now (free) for customized features, flight alerts, and more!